sensor_id;sensor_type;location;lat;lon;timestamp;P1;durP1;ratioP1;P2;durP2;ratioP2
14994;SDS011;7593;49.006;8.372;2024-03-08T00:01:44;19.97;;;15.17;;
14994;SDS011;7593;49.006;8.372;2024-03-08T00:04:11;17.67;;;14.03;;
14994;SDS011;7593;49.006;8.372;2024-03-08T00:06:38;18.43;;;15.57;;
14994;SDS011;7593;49.006;8.372;2024-03-08T00:09:07;18.73;;;15.50;;
14994;SDS011;7593;49.006;8.372;2024-03-08T00:11:34;17.80;;;15.27;;
14994;SDS011;7593;49.006;8.372;2024-03-08T00:14:00;17.47;;;14.13;;
14994;SDS011;7593;49.006;8.372;2024-03-08T00:16:27;18.73;;;14.90;;
14994;SDS011;7593;49.006;8.372;2024-03-08T00:18:54;19.03;;;14.97;;
14994;SDS011;7593;49.006;8.372;2024-03-08T00:21:21;18.70;;;14.50;;
14994;SDS011;7593;49.006;8.372;2024-03-08T00:23:47;18.13;;;15.03;;
14994;SDS011;7593;49.006;8.372;2024-03-08T00:26:15;17.00;;;14.03;;
14994;SDS011;7593;49.006;8.372;2024-03-08T00:28:42;18.70;;;14.87;;
14994;SDS011;7593;49.006;8.372;2024-03-08T00:31:09;24.33;;;16.30;;
14994;SDS011;7593;49.006;8.372;2024-03-08T00:33:35;17.80;;;14.77;;
14994;SDS011;7593;49.006;8.372;2024-03-08T00:36:02;17.60;;;15.07;;
14994;SDS011;7593;49.006;8.372;2024-03-08T00:38:29;16.60;;;14.60;;
14994;SDS011;7593;49.006;8.372;2024-03-08T00:40:56;19.90;;;14.20;;
14994;SDS011;7593;49.006;8.372;2024-03-08T00:43:24;17.27;;;15.03;;
14994;SDS011;7593;49.006;8.372;2024-03-08T00:45:51;18.77;;;15.17;;
14994;SDS011;7593;49.006;8.372;2024-03-08T00:48:18;18.80;;;14.37;;
14994;SDS011;7593;49.006;8.372;2024-03-08T00:50:45;17.80;;;15.10;;
14994;SDS011;7593;49.006;8.372;2024-03-08T00:53:13;17.93;;;15.00;;
14994;SDS011;7593;49.006;8.372;2024-03-08T00:55:39;19.10;;;15.37;;
14994;SDS011;7593;49.006;8.372;2024-03-08T00:58:06;19.27;;;15.20;;
14994;SDS011;7593;49.006;8.372;2024-03-08T01:00:36;19.80;;;15.13;;
14994;SDS011;7593;49.006;8.372;2024-03-08T01:03:05;19.07;;;15.27;;
14994;SDS011;7593;49.006;8.372;2024-03-08T01:05:32;18.70;;;15.20;;
14994;SDS011;7593;49.006;8.372;2024-03-08T01:08:00;19.13;;;15.33;;
14994;SDS011;7593;49.006;8.372;2024-03-08T01:10:30;18.53;;;14.60;;
14994;SDS011;7593;49.006;8.372;2024-03-08T01:12:56;19.43;;;15.03;;
14994;SDS011;7593;49.006;8.372;2024-03-08T01:15:24;17.67;;;12.50;;
14994;SDS011;7593;49.006;8.372;2024-03-08T01:17:55;19.87;;;15.07;;
14994;SDS011;7593;49.006;8.372;2024-03-08T01:20:24;19.80;;;14.63;;
14994;SDS011;7593;49.006;8.372;2024-03-08T01:22:51;17.90;;;14.30;;
14994;SDS011;7593;49.006;8.372;2024-03-08T01:25:18;19.33;;;15.70;;
14994;SDS011;7593;49.006;8.372;2024-03-08T01:27:44;19.80;;;15.67;;
14994;SDS011;7593;49.006;8.372;2024-03-08T01:30:13;18.83;;;15.43;;
14994;SDS011;7593;49.006;8.372;2024-03-08T01:32:41;19.60;;;15.50;;
14994;SDS011;7593;49.006;8.372;2024-03-08T01:35:10;17.13;;;13.97;;
14994;SDS011;7593;49.006;8.372;2024-03-08T01:37:37;18.43;;;14.80;;
14994;SDS011;7593;49.006;8.372;2024-03-08T01:40:04;18.60;;;15.50;;
14994;SDS011;7593;49.006;8.372;2024-03-08T01:42:32;18.10;;;14.67;;
14994;SDS011;7593;49.006;8.372;2024-03-08T01:44:59;18.47;;;14.30;;
14994;SDS011;7593;49.006;8.372;2024-03-08T01:47:25;19.47;;;15.50;;
14994;SDS011;7593;49.006;8.372;2024-03-08T01:49:53;20.53;;;15.90;;
14994;SDS011;7593;49.006;8.372;2024-03-08T01:52:21;19.90;;;15.63;;
14994;SDS011;7593;49.006;8.372;2024-03-08T01:54:48;18.10;;;15.40;;
14994;SDS011;7593;49.006;8.372;2024-03-08T01:57:16;21.40;;;14.67;;
14994;SDS011;7593;49.006;8.372;2024-03-08T01:59:43;20.23;;;15.80;;
14994;SDS011;7593;49.006;8.372;2024-03-08T02:02:10;19.37;;;15.33;;
14994;SDS011;7593;49.006;8.372;2024-03-08T02:04:40;20.37;;;15.97;;
14994;SDS011;7593;49.006;8.372;2024-03-08T02:07:08;19.90;;;15.63;;
14994;SDS011;7593;49.006;8.372;2024-03-08T02:09:36;19.27;;;16.00;;
14994;SDS011;7593;49.006;8.372;2024-03-08T02:12:03;19.10;;;14.97;;
14994;SDS011;7593;49.006;8.372;2024-03-08T02:14:30;20.33;;;16.07;;
14994;SDS011;7593;49.006;8.372;2024-03-08T02:16:59;20.57;;;16.20;;
14994;SDS011;7593;49.006;8.372;2024-03-08T02:19:26;17.53;;;14.30;;
14994;SDS011;7593;49.006;8.372;2024-03-08T02:21:54;18.40;;;15.50;;
14994;SDS011;7593;49.006;8.372;2024-03-08T02:24:22;20.50;;;15.97;;
14994;SDS011;7593;49.006;8.372;2024-03-08T02:26:50;20.60;;;15.73;;
14994;SDS011;7593;49.006;8.372;2024-03-08T02:29:18;19.67;;;15.60;;
14994;SDS011;7593;49.006;8.372;2024-03-08T02:31:46;19.17;;;15.40;;
14994;SDS011;7593;49.006;8.372;2024-03-08T02:34:13;23.57;;;15.20;;
14994;SDS011;7593;49.006;8.372;2024-03-08T02:36:40;23.00;;;15.83;;
14994;SDS011;7593;49.006;8.372;2024-03-08T02:39:08;17.67;;;15.23;;
14994;SDS011;7593;49.006;8.372;2024-03-08T02:41:35;19.73;;;15.93;;
14994;SDS011;7593;49.006;8.372;2024-03-08T02:44:02;20.60;;;15.80;;
14994;SDS011;7593;49.006;8.372;2024-03-08T02:46:30;19.63;;;15.03;;
14994;SDS011;7593;49.006;8.372;2024-03-08T02:48:56;20.00;;;14.87;;
14994;SDS011;7593;49.006;8.372;2024-03-08T02:51:23;18.17;;;15.13;;
14994;SDS011;7593;49.006;8.372;2024-03-08T02:53:51;20.60;;;15.83;;
14994;SDS011;7593;49.006;8.372;2024-03-08T02:56:19;18.77;;;15.57;;
14994;SDS011;7593;49.006;8.372;2024-03-08T02:58:46;18.20;;;13.97;;
14994;SDS011;7593;49.006;8.372;2024-03-08T03:01:13;20.80;;;15.47;;
14994;SDS011;7593;49.006;8.372;2024-03-08T03:03:40;20.27;;;15.40;;
14994;SDS011;7593;49.006;8.372;2024-03-08T03:06:07;20.30;;;15.77;;
14994;SDS011;7593;49.006;8.372;2024-03-08T03:08:34;17.70;;;14.80;;
14994;SDS011;7593;49.006;8.372;2024-03-08T03:11:01;22.90;;;16.13;;
14994;SDS011;7593;49.006;8.372;2024-03-08T03:13:29;18.87;;;14.63;;
14994;SDS011;7593;49.006;8.372;2024-03-08T03:15:56;20.10;;;15.33;;
14994;SDS011;7593;49.006;8.372;2024-03-08T03:18:23;20.17;;;14.53;;
14994;SDS011;7593;49.006;8.372;2024-03-08T03:20:52;19.03;;;15.37;;
14994;SDS011;7593;49.006;8.372;2024-03-08T03:23:19;19.27;;;15.37;;
14994;SDS011;7593;49.006;8.372;2024-03-08T03:25:46;19.27;;;14.80;;
14994;SDS011;7593;49.006;8.372;2024-03-08T03:28:13;22.57;;;16.07;;
14994;SDS011;7593;49.006;8.372;2024-03-08T03:30:44;18.40;;;15.63;;
14994;SDS011;7593;49.006;8.372;2024-03-08T03:33:11;20.60;;;15.73;;
14994;SDS011;7593;49.006;8.372;2024-03-08T03:35:40;17.03;;;13.77;;
14994;SDS011;7593;49.006;8.372;2024-03-08T03:38:08;20.97;;;15.27;;
14994;SDS011;7593;49.006;8.372;2024-03-08T03:40:35;20.40;;;15.50;;
14994;SDS011;7593;49.006;8.372;2024-03-08T03:43:02;19.20;;;15.80;;
14994;SDS011;7593;49.006;8.372;2024-03-08T03:45:30;20.37;;;15.83;;
14994;SDS011;7593;49.006;8.372;2024-03-08T03:48:01;17.73;;;14.37;;
14994;SDS011;7593;49.006;8.372;2024-03-08T03:50:28;18.53;;;15.03;;
14994;SDS011;7593;49.006;8.372;2024-03-08T03:52:55;18.90;;;15.30;;
14994;SDS011;7593;49.006;8.372;2024-03-08T03:55:22;20.10;;;14.93;;
14994;SDS011;7593;49.006;8.372;2024-03-08T03:57:49;20.47;;;15.77;;
14994;SDS011;7593;49.006;8.372;2024-03-08T04:00:16;20.87;;;15.10;;
14994;SDS011;7593;49.006;8.372;2024-03-08T04:02:43;20.20;;;15.77;;
14994;SDS011;7593;49.006;8.372;2024-03-08T04:05:11;18.37;;;14.53;;
14994;SDS011;7593;49.006;8.372;2024-03-08T04:07:38;18.63;;;14.70;;
14994;SDS011;7593;49.006;8.372;2024-03-08T04:10:06;19.43;;;15.20;;
14994;SDS011;7593;49.006;8.372;2024-03-08T04:12:34;19.77;;;15.97;;
14994;SDS011;7593;49.006;8.372;2024-03-08T04:15:02;20.47;;;16.03;;
14994;SDS011;7593;49.006;8.372;2024-03-08T04:17:30;19.07;;;15.13;;
14994;SDS011;7593;49.006;8.372;2024-03-08T04:19:56;19.73;;;14.80;;
14994;SDS011;7593;49.006;8.372;2024-03-08T04:22:24;17.47;;;13.97;;
14994;SDS011;7593;49.006;8.372;2024-03-08T04:24:53;21.33;;;15.53;;
14994;SDS011;7593;49.006;8.372;2024-03-08T04:27:20;18.50;;;14.07;;
14994;SDS011;7593;49.006;8.372;2024-03-08T04:29:47;17.87;;;14.77;;
14994;SDS011;7593;49.006;8.372;2024-03-08T04:32:13;17.83;;;14.57;;
14994;SDS011;7593;49.006;8.372;2024-03-08T04:34:40;19.47;;;14.90;;
14994;SDS011;7593;49.006;8.372;2024-03-08T04:37:07;21.27;;;14.93;;
14994;SDS011;7593;49.006;8.372;2024-03-08T04:39:37;19.80;;;14.50;;
14994;SDS011;7593;49.006;8.372;2024-03-08T04:42:04;18.07;;;14.07;;
14994;SDS011;7593;49.006;8.372;2024-03-08T04:44:34;21.83;;;15.50;;
14994;SDS011;7593;49.006;8.372;2024-03-08T04:47:02;19.80;;;14.30;;
14994;SDS011;7593;49.006;8.372;2024-03-08T04:49:30;18.93;;;14.40;;
14994;SDS011;7593;49.006;8.372;2024-03-08T04:51:59;18.63;;;14.50;;
14994;SDS011;7593;49.006;8.372;2024-03-08T04:54:27;18.30;;;13.83;;
14994;SDS011;7593;49.006;8.372;2024-03-08T04:56:55;18.30;;;14.40;;
14994;SDS011;7593;49.006;8.372;2024-03-08T04:59:22;20.03;;;15.10;;
14994;SDS011;7593;49.006;8.372;2024-03-08T05:01:49;16.63;;;13.93;;
14994;SDS011;7593;49.006;8.372;2024-03-08T05:04:16;17.80;;;14.37;;
14994;SDS011;7593;49.006;8.372;2024-03-08T05:06:43;17.43;;;13.53;;
14994;SDS011;7593;49.006;8.372;2024-03-08T05:09:10;16.23;;;13.97;;
14994;SDS011;7593;49.006;8.372;2024-03-08T05:11:40;18.83;;;14.43;;
14994;SDS011;7593;49.006;8.372;2024-03-08T05:14:09;18.93;;;13.67;;
14994;SDS011;7593;49.006;8.372;2024-03-08T05:16:35;16.80;;;13.60;;
14994;SDS011;7593;49.006;8.372;2024-03-08T05:19:02;20.57;;;14.53;;
14994;SDS011;7593;49.006;8.372;2024-03-08T05:21:29;17.33;;;13.57;;
14994;SDS011;7593;49.006;8.372;2024-03-08T05:23:56;19.57;;;14.33;;
14994;SDS011;7593;49.006;8.372;2024-03-08T05:26:22;19.97;;;14.63;;
14994;SDS011;7593;49.006;8.372;2024-03-08T05:28:49;18.63;;;14.47;;
14994;SDS011;7593;49.006;8.372;2024-03-08T05:31:19;17.47;;;12.93;;
14994;SDS011;7593;49.006;8.372;2024-03-08T05:33:47;20.50;;;14.00;;
14994;SDS011;7593;49.006;8.372;2024-03-08T05:36:14;17.37;;;13.90;;
14994;SDS011;7593;49.006;8.372;2024-03-08T05:38:42;17.67;;;13.60;;
14994;SDS011;7593;49.006;8.372;2024-03-08T05:41:08;18.63;;;14.97;;
14994;SDS011;7593;49.006;8.372;2024-03-08T05:43:36;17.77;;;12.80;;
14994;SDS011;7593;49.006;8.372;2024-03-08T05:46:03;16.20;;;12.97;;
14994;SDS011;7593;49.006;8.372;2024-03-08T05:48:31;16.27;;;13.67;;
14994;SDS011;7593;49.006;8.372;2024-03-08T05:50:59;16.23;;;13.37;;
14994;SDS011;7593;49.006;8.372;2024-03-08T05:53:26;17.90;;;14.20;;
14994;SDS011;7593;49.006;8.372;2024-03-08T05:55:56;19.10;;;13.70;;
14994;SDS011;7593;49.006;8.372;2024-03-08T05:58:23;16.20;;;13.33;;
14994;SDS011;7593;49.006;8.372;2024-03-08T06:00:50;19.37;;;14.33;;
14994;SDS011;7593;49.006;8.372;2024-03-08T06:03:16;17.90;;;13.97;;
14994;SDS011;7593;49.006;8.372;2024-03-08T06:05:48;19.67;;;13.87;;
14994;SDS011;7593;49.006;8.372;2024-03-08T06:08:15;16.47;;;13.37;;
14994;SDS011;7593;49.006;8.372;2024-03-08T06:10:41;17.00;;;14.23;;
14994;SDS011;7593;49.006;8.372;2024-03-08T06:13:08;19.23;;;13.60;;
14994;SDS011;7593;49.006;8.372;2024-03-08T06:15:37;18.67;;;14.57;;
14994;SDS011;7593;49.006;8.372;2024-03-08T06:18:04;17.97;;;13.87;;
14994;SDS011;7593;49.006;8.372;2024-03-08T06:20:31;17.13;;;13.57;;
14994;SDS011;7593;49.006;8.372;2024-03-08T06:22:59;18.70;;;14.33;;
14994;SDS011;7593;49.006;8.372;2024-03-08T06:25:26;17.77;;;13.63;;
14994;SDS011;7593;49.006;8.372;2024-03-08T06:27:53;18.07;;;14.10;;
14994;SDS011;7593;49.006;8.372;2024-03-08T06:30:20;18.73;;;12.90;;
14994;SDS011;7593;49.006;8.372;2024-03-08T06:32:47;16.87;;;14.13;;
14994;SDS011;7593;49.006;8.372;2024-03-08T06:35:14;19.60;;;15.07;;
14994;SDS011;7593;49.006;8.372;2024-03-08T06:37:41;17.80;;;13.53;;
14994;SDS011;7593;49.006;8.372;2024-03-08T06:40:11;20.23;;;14.57;;
14994;SDS011;7593;49.006;8.372;2024-03-08T06:42:39;18.17;;;14.23;;
14994;SDS011;7593;49.006;8.372;2024-03-08T06:45:06;17.93;;;14.53;;
14994;SDS011;7593;49.006;8.372;2024-03-08T06:47:35;19.37;;;13.90;;
14994;SDS011;7593;49.006;8.372;2024-03-08T06:50:02;17.83;;;13.63;;
14994;SDS011;7593;49.006;8.372;2024-03-08T06:52:29;16.97;;;13.70;;
14994;SDS011;7593;49.006;8.372;2024-03-08T06:54:56;18.27;;;13.87;;
14994;SDS011;7593;49.006;8.372;2024-03-08T06:57:24;20.43;;;14.20;;
14994;SDS011;7593;49.006;8.372;2024-03-08T06:59:51;17.93;;;15.00;;
14994;SDS011;7593;49.006;8.372;2024-03-08T07:02:19;18.40;;;13.30;;
14994;SDS011;7593;49.006;8.372;2024-03-08T07:04:49;16.40;;;14.10;;
14994;SDS011;7593;49.006;8.372;2024-03-08T07:07:16;18.93;;;15.33;;
14994;SDS011;7593;49.006;8.372;2024-03-08T07:09:45;18.20;;;13.27;;
14994;SDS011;7593;49.006;8.372;2024-03-08T07:12:14;17.43;;;13.47;;
14994;SDS011;7593;49.006;8.372;2024-03-08T07:14:43;17.03;;;13.43;;
14994;SDS011;7593;49.006;8.372;2024-03-08T07:17:10;18.30;;;13.27;;
14994;SDS011;7593;49.006;8.372;2024-03-08T07:19:37;19.33;;;13.83;;
14994;SDS011;7593;49.006;8.372;2024-03-08T07:22:04;16.73;;;12.85;;
14994;SDS011;7593;49.006;8.372;2024-03-08T07:24:33;18.05;;;13.00;;
14994;SDS011;7593;49.006;8.372;2024-03-08T07:27:15;16.08;;;13.00;;
14994;SDS011;7593;49.006;8.372;2024-03-08T07:29:43;16.17;;;13.43;;
14994;SDS011;7593;49.006;8.372;2024-03-08T07:32:10;15.10;;;13.45;;
14994;SDS011;7593;49.006;8.372;2024-03-08T07:34:45;17.02;;;13.85;;
14994;SDS011;7593;49.006;8.372;2024-03-08T07:37:14;15.55;;;13.27;;
14994;SDS011;7593;49.006;8.372;2024-03-08T07:39:40;14.45;;;12.80;;
14994;SDS011;7593;49.006;8.372;2024-03-08T07:42:08;15.82;;;12.38;;
14994;SDS011;7593;49.006;8.372;2024-03-08T07:44:35;16.65;;;13.70;;
14994;SDS011;7593;49.006;8.372;2024-03-08T07:47:04;16.50;;;13.98;;
14994;SDS011;7593;49.006;8.372;2024-03-08T07:49:34;16.75;;;13.18;;
14994;SDS011;7593;49.006;8.372;2024-03-08T07:52:02;16.95;;;13.32;;
14994;SDS011;7593;49.006;8.372;2024-03-08T07:54:29;15.57;;;13.98;;
14994;SDS011;7593;49.006;8.372;2024-03-08T07:56:56;15.43;;;13.52;;
14994;SDS011;7593;49.006;8.372;2024-03-08T07:59:23;16.80;;;13.00;;
14994;SDS011;7593;49.006;8.372;2024-03-08T08:01:49;15.90;;;13.10;;
14994;SDS011;7593;49.006;8.372;2024-03-08T08:04:17;14.60;;;12.52;;
14994;SDS011;7593;49.006;8.372;2024-03-08T08:06:49;15.00;;;13.40;;
14994;SDS011;7593;49.006;8.372;2024-03-08T08:09:16;15.70;;;12.98;;
14994;SDS011;7593;49.006;8.372;2024-03-08T08:11:53;16.42;;;14.10;;
14994;SDS011;7593;49.006;8.372;2024-03-08T08:14:20;15.07;;;13.48;;
14994;SDS011;7593;49.006;8.372;2024-03-08T08:16:47;15.68;;;13.63;;
14994;SDS011;7593;49.006;8.372;2024-03-08T08:19:18;14.77;;;12.80;;
14994;SDS011;7593;49.006;8.372;2024-03-08T08:21:45;13.00;;;11.27;;
14994;SDS011;7593;49.006;8.372;2024-03-08T08:24:12;17.08;;;14.07;;
14994;SDS011;7593;49.006;8.372;2024-03-08T08:26:39;17.20;;;14.52;;
14994;SDS011;7593;49.006;8.372;2024-03-08T08:29:06;17.95;;;14.30;;
14994;SDS011;7593;49.006;8.372;2024-03-08T08:31:33;15.77;;;13.82;;
14994;SDS011;7593;49.006;8.372;2024-03-08T08:34:00;15.55;;;13.55;;
14994;SDS011;7593;49.006;8.372;2024-03-08T08:36:29;18.48;;;14.40;;
14994;SDS011;7593;49.006;8.372;2024-03-08T08:38:56;17.60;;;14.55;;
14994;SDS011;7593;49.006;8.372;2024-03-08T08:41:24;16.05;;;13.70;;
14994;SDS011;7593;49.006;8.372;2024-03-08T08:43:52;16.10;;;13.68;;
14994;SDS011;7593;49.006;8.372;2024-03-08T08:46:19;14.23;;;12.27;;
14994;SDS011;7593;49.006;8.372;2024-03-08T08:48:46;14.07;;;11.88;;
14994;SDS011;7593;49.006;8.372;2024-03-08T08:51:13;15.65;;;13.55;;
14994;SDS011;7593;49.006;8.372;2024-03-08T08:53:42;17.20;;;13.93;;
14994;SDS011;7593;49.006;8.372;2024-03-08T08:56:10;15.75;;;13.80;;
14994;SDS011;7593;49.006;8.372;2024-03-08T08:58:38;14.05;;;12.40;;
14994;SDS011;7593;49.006;8.372;2024-03-08T09:01:05;17.30;;;13.48;;
14994;SDS011;7593;49.006;8.372;2024-03-08T09:03:32;15.32;;;13.07;;
14994;SDS011;7593;49.006;8.372;2024-03-08T09:05:59;16.52;;;13.73;;
14994;SDS011;7593;49.006;8.372;2024-03-08T09:08:27;15.00;;;13.40;;
14994;SDS011;7593;49.006;8.372;2024-03-08T09:10:56;14.25;;;12.02;;
14994;SDS011;7593;49.006;8.372;2024-03-08T09:13:24;17.77;;;13.18;;
14994;SDS011;7593;49.006;8.372;2024-03-08T09:15:51;18.63;;;10.82;;
14994;SDS011;7593;49.006;8.372;2024-03-08T09:18:18;14.43;;;12.88;;
14994;SDS011;7593;49.006;8.372;2024-03-08T09:20:45;14.85;;;13.05;;
14994;SDS011;7593;49.006;8.372;2024-03-08T09:23:12;14.52;;;12.93;;
14994;SDS011;7593;49.006;8.372;2024-03-08T09:25:40;14.52;;;12.57;;
14994;SDS011;7593;49.006;8.372;2024-03-08T09:28:08;15.45;;;12.95;;
14994;SDS011;7593;49.006;8.372;2024-03-08T09:30:36;14.77;;;12.77;;
14994;SDS011;7593;49.006;8.372;2024-03-08T09:33:03;15.50;;;12.52;;
14994;SDS011;7593;49.006;8.372;2024-03-08T09:35:30;13.70;;;11.68;;
14994;SDS011;7593;49.006;8.372;2024-03-08T09:37:57;15.68;;;12.30;;
14994;SDS011;7593;49.006;8.372;2024-03-08T09:40:24;14.07;;;11.32;;
14994;SDS011;7593;49.006;8.372;2024-03-08T09:42:52;17.11;;;13.16;;
14994;SDS011;7593;49.006;8.372;2024-03-08T09:45:21;15.13;;;13.00;;
14994;SDS011;7593;49.006;8.372;2024-03-08T09:47:50;13.85;;;11.98;;
14994;SDS011;7593;49.006;8.372;2024-03-08T09:50:18;14.50;;;12.43;;
14994;SDS011;7593;49.006;8.372;2024-03-08T09:52:46;14.30;;;12.70;;
14994;SDS011;7593;49.006;8.372;2024-03-08T09:55:15;15.05;;;12.70;;
14994;SDS011;7593;49.006;8.372;2024-03-08T09:57:47;15.48;;;13.02;;
14994;SDS011;7593;49.006;8.372;2024-03-08T10:00:30;15.52;;;13.55;;
14994;SDS011;7593;49.006;8.372;2024-03-08T10:03:00;15.90;;;12.45;;
14994;SDS011;7593;49.006;8.372;2024-03-08T10:05:27;14.88;;;12.88;;
14994;SDS011;7593;49.006;8.372;2024-03-08T10:07:54;16.30;;;13.05;;
14994;SDS011;7593;49.006;8.372;2024-03-08T10:10:20;14.85;;;12.60;;
14994;SDS011;7593;49.006;8.372;2024-03-08T10:12:47;15.52;;;12.95;;
14994;SDS011;7593;49.006;8.372;2024-03-08T10:15:15;14.07;;;12.57;;
14994;SDS011;7593;49.006;8.372;2024-03-08T10:17:44;14.35;;;12.52;;
14994;SDS011;7593;49.006;8.372;2024-03-08T10:20:13;14.93;;;12.85;;
14994;SDS011;7593;49.006;8.372;2024-03-08T10:22:41;14.55;;;12.30;;
14994;SDS011;7593;49.006;8.372;2024-03-08T10:25:09;16.23;;;13.13;;
14994;SDS011;7593;49.006;8.372;2024-03-08T10:27:37;14.23;;;12.35;;
14994;SDS011;7593;49.006;8.372;2024-03-08T10:30:06;12.98;;;11.65;;
14994;SDS011;7593;49.006;8.372;2024-03-08T10:32:34;14.77;;;12.40;;
14994;SDS011;7593;49.006;8.372;2024-03-08T10:35:03;15.30;;;12.70;;
14994;SDS011;7593;49.006;8.372;2024-03-08T10:37:30;14.60;;;12.68;;
14994;SDS011;7593;49.006;8.372;2024-03-08T10:40:01;14.10;;;12.27;;
14994;SDS011;7593;49.006;8.372;2024-03-08T10:42:35;15.32;;;12.10;;
14994;SDS011;7593;49.006;8.372;2024-03-08T10:45:07;14.10;;;12.68;;
14994;SDS011;7593;49.006;8.372;2024-03-08T10:47:41;13.70;;;12.30;;
14994;SDS011;7593;49.006;8.372;2024-03-08T10:50:15;13.75;;;12.32;;
14994;SDS011;7593;49.006;8.372;2024-03-08T10:52:46;15.30;;;11.57;;
14994;SDS011;7593;49.006;8.372;2024-03-08T10:55:15;13.57;;;11.73;;
14994;SDS011;7593;49.006;8.372;2024-03-08T10:57:42;12.73;;;11.43;;
14994;SDS011;7593;49.006;8.372;2024-03-08T11:00:09;13.38;;;11.88;;
14994;SDS011;7593;49.006;8.372;2024-03-08T11:02:39;12.65;;;11.35;;
14994;SDS011;7593;49.006;8.372;2024-03-08T11:05:10;15.30;;;11.80;;
14994;SDS011;7593;49.006;8.372;2024-03-08T11:07:43;12.70;;;10.90;;
14994;SDS011;7593;49.006;8.372;2024-03-08T11:10:18;14.55;;;12.00;;
14994;SDS011;7593;49.006;8.372;2024-03-08T11:12:46;12.38;;;10.88;;
14994;SDS011;7593;49.006;8.372;2024-03-08T11:15:13;14.40;;;11.27;;
14994;SDS011;7593;49.006;8.372;2024-03-08T11:17:47;13.10;;;11.25;;
14994;SDS011;7593;49.006;8.372;2024-03-08T11:20:15;14.30;;;12.10;;
14994;SDS011;7593;49.006;8.372;2024-03-08T11:22:49;14.60;;;12.25;;
14994;SDS011;7593;49.006;8.372;2024-03-08T11:25:33;13.82;;;12.23;;
14994;SDS011;7593;49.006;8.372;2024-03-08T11:28:07;13.18;;;11.32;;
14994;SDS011;7593;49.006;8.372;2024-03-08T11:30:36;13.50;;;12.23;;
14994;SDS011;7593;49.006;8.372;2024-03-08T11:33:03;14.40;;;12.70;;
14994;SDS011;7593;49.006;8.372;2024-03-08T11:35:30;13.63;;;12.23;;
14994;SDS011;7593;49.006;8.372;2024-03-08T11:37:59;13.13;;;11.75;;
14994;SDS011;7593;49.006;8.372;2024-03-08T11:40:26;15.93;;;12.55;;
14994;SDS011;7593;49.006;8.372;2024-03-08T11:42:53;13.82;;;12.43;;
14994;SDS011;7593;49.006;8.372;2024-03-08T11:45:20;14.27;;;12.35;;
14994;SDS011;7593;49.006;8.372;2024-03-08T11:47:47;12.82;;;11.50;;
14994;SDS011;7593;49.006;8.372;2024-03-08T11:50:14;13.30;;;12.00;;
14994;SDS011;7593;49.006;8.372;2024-03-08T11:52:43;13.43;;;12.02;;
14994;SDS011;7593;49.006;8.372;2024-03-08T11:55:12;13.95;;;12.55;;
14994;SDS011;7593;49.006;8.372;2024-03-08T11:57:39;12.48;;;11.27;;
14994;SDS011;7593;49.006;8.372;2024-03-08T12:00:11;13.77;;;12.30;;
14994;SDS011;7593;49.006;8.372;2024-03-08T12:02:59;12.93;;;11.65;;
14994;SDS011;7593;49.006;8.372;2024-03-08T12:05:27;13.18;;;11.85;;
14994;SDS011;7593;49.006;8.372;2024-03-08T12:07:56;13.88;;;12.05;;
14994;SDS011;7593;49.006;8.372;2024-03-08T12:10:24;17.38;;;12.80;;
14994;SDS011;7593;49.006;8.372;2024-03-08T12:12:52;14.20;;;12.77;;
14994;SDS011;7593;49.006;8.372;2024-03-08T12:15:21;13.13;;;11.55;;
14994;SDS011;7593;49.006;8.372;2024-03-08T12:17:49;14.15;;;12.02;;
14994;SDS011;7593;49.006;8.372;2024-03-08T12:20:17;12.85;;;11.52;;
14994;SDS011;7593;49.006;8.372;2024-03-08T12:22:46;13.23;;;11.88;;
14994;SDS011;7593;49.006;8.372;2024-03-08T12:25:14;13.20;;;11.90;;
14994;SDS011;7593;49.006;8.372;2024-03-08T12:27:43;17.92;;;14.60;;
14994;SDS011;7593;49.006;8.372;2024-03-08T12:30:18;13.05;;;11.70;;
14994;SDS011;7593;49.006;8.372;2024-03-08T12:32:53;12.57;;;11.27;;
14994;SDS011;7593;49.006;8.372;2024-03-08T12:35:22;13.20;;;11.88;;
14994;SDS011;7593;49.006;8.372;2024-03-08T12:37:52;14.07;;;12.15;;
14994;SDS011;7593;49.006;8.372;2024-03-08T12:40:21;13.63;;;12.25;;
14994;SDS011;7593;49.006;8.372;2024-03-08T12:42:54;14.70;;;12.77;;
14994;SDS011;7593;49.006;8.372;2024-03-08T12:45:21;14.13;;;12.63;;
14994;SDS011;7593;49.006;8.372;2024-03-08T12:47:49;14.75;;;12.07;;
14994;SDS011;7593;49.006;8.372;2024-03-08T12:50:16;16.67;;;12.38;;
14994;SDS011;7593;49.006;8.372;2024-03-08T12:52:43;14.10;;;12.70;;
14994;SDS011;7593;49.006;8.372;2024-03-08T12:55:10;16.92;;;12.75;;
14994;SDS011;7593;49.006;8.372;2024-03-08T12:57:37;14.48;;;12.65;;
14994;SDS011;7593;49.006;8.372;2024-03-08T13:00:06;13.73;;;12.23;;
14994;SDS011;7593;49.006;8.372;2024-03-08T13:02:38;15.93;;;11.77;;
14994;SDS011;7593;49.006;8.372;2024-03-08T13:05:05;15.35;;;12.88;;
14994;SDS011;7593;49.006;8.372;2024-03-08T13:07:34;15.88;;;12.40;;
14994;SDS011;7593;49.006;8.372;2024-03-08T13:10:02;12.70;;;11.50;;
14994;SDS011;7593;49.006;8.372;2024-03-08T13:12:29;13.52;;;12.13;;
14994;SDS011;7593;49.006;8.372;2024-03-08T13:14:56;13.48;;;11.95;;
14994;SDS011;7593;49.006;8.372;2024-03-08T13:17:24;13.90;;;11.50;;
14994;SDS011;7593;49.006;8.372;2024-03-08T13:19:51;14.23;;;12.73;;
14994;SDS011;7593;49.006;8.372;2024-03-08T13:22:22;13.40;;;11.38;;
14994;SDS011;7593;49.006;8.372;2024-03-08T13:24:49;14.18;;;12.60;;
14994;SDS011;7593;49.006;8.372;2024-03-08T13:27:17;14.15;;;12.65;;
14994;SDS011;7593;49.006;8.372;2024-03-08T13:29:46;12.70;;;11.23;;
14994;SDS011;7593;49.006;8.372;2024-03-08T13:32:14;15.63;;;12.18;;
14994;SDS011;7593;49.006;8.372;2024-03-08T13:34:42;14.07;;;12.68;;
14994;SDS011;7593;49.006;8.372;2024-03-08T13:37:10;13.48;;;12.13;;
14994;SDS011;7593;49.006;8.372;2024-03-08T13:39:37;13.25;;;11.95;;
14994;SDS011;7593;49.006;8.372;2024-03-08T13:42:13;17.50;;;12.68;;
14994;SDS011;7593;49.006;8.372;2024-03-08T13:44:44;14.93;;;12.50;;
14994;SDS011;7593;49.006;8.372;2024-03-08T13:47:12;14.20;;;12.50;;
14994;SDS011;7593;49.006;8.372;2024-03-08T13:49:39;13.77;;;11.68;;
14994;SDS011;7593;49.006;8.372;2024-03-08T13:52:07;16.05;;;12.32;;
14994;SDS011;7593;49.006;8.372;2024-03-08T13:54:34;14.20;;;12.65;;
14994;SDS011;7593;49.006;8.372;2024-03-08T13:57:01;15.30;;;12.52;;
14994;SDS011;7593;49.006;8.372;2024-03-08T13:59:29;12.88;;;11.57;;
14994;SDS011;7593;49.006;8.372;2024-03-08T14:01:58;14.40;;;11.40;;
14994;SDS011;7593;49.006;8.372;2024-03-08T14:04:26;13.20;;;11.63;;
14994;SDS011;7593;49.006;8.372;2024-03-08T14:06:53;13.07;;;11.77;;
14994;SDS011;7593;49.006;8.372;2024-03-08T14:09:23;13.45;;;11.77;;
14994;SDS011;7593;49.006;8.372;2024-03-08T14:11:51;14.93;;;12.15;;
14994;SDS011;7593;49.006;8.372;2024-03-08T14:14:19;14.57;;;12.32;;
14994;SDS011;7593;49.006;8.372;2024-03-08T14:16:48;16.00;;;12.80;;
14994;SDS011;7593;49.006;8.372;2024-03-08T14:19:17;13.45;;;12.00;;
14994;SDS011;7593;49.006;8.372;2024-03-08T14:21:45;13.70;;;11.43;;
14994;SDS011;7593;49.006;8.372;2024-03-08T14:24:13;14.05;;;12.63;;
14994;SDS011;7593;49.006;8.372;2024-03-08T14:26:41;13.77;;;12.38;;
14994;SDS011;7593;49.006;8.372;2024-03-08T14:29:08;15.43;;;13.30;;
14994;SDS011;7593;49.006;8.372;2024-03-08T14:31:36;13.48;;;12.18;;
14994;SDS011;7593;49.006;8.372;2024-03-08T14:34:03;14.82;;;13.23;;
14994;SDS011;7593;49.006;8.372;2024-03-08T14:36:29;13.23;;;11.90;;
14994;SDS011;7593;49.006;8.372;2024-03-08T14:38:56;16.23;;;14.02;;